Time;durP1;ratioP1;P1;durP2;ratioP2;P2;SDS_P1;SDS_P2;PMS_P1;PMS_P2;Temp;Humidity;BMP_temperature;BMP_pressure;BME280_temperature;BME280_humidity;BME280_pressure;Samples;Min_cycle;Max_cycle;Signal;HPM_P1;HPM_P2
2023/05/30 05:59:06;;;;;;;9.02;3.83;;;;;;;23.46;100.00;101009.50;2118834;27;20468;-76
2023/05/30 06:00:29;;;;;;;11.20;4.15;;;;;;;23.62;100.00;101010.81;2111630;28;20043;-76
2023/05/30 06:01:51;;;;;;;5.95;2.90;;;;;;;23.96;100.00;100999.69;2115378;28;20213;-73
2023/05/30 06:03:13;;;;;;;6.45;2.97;;;;;;;24.36;100.00;101003.66;2109403;28;20120;-74
2023/05/30 06:04:36;;;;;;;7.45;3.67;;;;;;;24.43;100.00;101006.09;2114862;28;20274;-74
2023/05/30 06:05:57;;;;;;;8.07;3.42;;;;;;;24.37;100.00;101002.72;2103354;28;20063;-73
2023/05/30 06:07:19;;;;;;;10.45;3.78;;;;;;;24.39;100.00;101007.16;2106622;28;20079;-73
2023/05/30 06:08:46;;;;;;;7.80;3.10;;;;;;;24.71;100.00;101003.22;2109496;28;20067;-73
2023/05/30 06:10:10;;;;;;;5.93;2.90;;;;;;;25.14;100.00;101002.41;2109608;28;20066;-74
2023/05/30 06:11:32;;;;;;;9.10;2.97;;;;;;;25.61;100.00;101003.16;2118018;28;20055;-74
2023/05/30 06:12:55;;;;;;;7.10;3.10;;;;;;;26.07;100.00;101007.47;2115711;28;20050;-74
2023/05/30 06:14:18;;;;;;;6.68;2.67;;;;;;;26.51;100.00;101008.19;2117755;28;20054;-74
2023/05/30 06:15:41;;;;;;;7.22;3.03;;;;;;;26.73;100.00;101013.47;2109596;28;20047;-74
2023/05/30 06:17:05;;;;;;;6.13;2.78;;;;;;;26.66;100.00;101014.72;2109495;28;20039;-74
2023/05/30 06:18:27;;;;;;;7.47;2.60;;;;;;;26.50;100.00;101013.69;2116684;28;20047;-74
2023/05/30 06:19:50;;;;;;;6.40;2.90;;;;;;;26.20;99.75;101008.66;2107754;28;20149;-74
2023/05/30 06:21:13;;;;;;;8.40;2.90;;;;;;;25.88;100.00;101011.91;2101011;28;20048;-74
2023/05/30 06:22:34;;;;;;;6.65;2.42;;;;;;;25.89;100.00;101008.28;2116058;28;20062;-75
2023/05/30 06:23:57;;;;;;;8.15;3.33;;;;;;;26.07;100.00;101004.75;2117803;28;20466;-75
2023/05/30 06:25:19;;;;;;;6.43;2.67;;;;;;;26.33;99.94;101006.31;2116268;28;20061;-74
2023/05/30 06:26:42;;;;;;;7.43;2.67;;;;;;;26.56;97.90;101000.72;2105370;28;20078;-74
2023/05/30 06:28:05;;;;;;;7.72;2.75;;;;;;;26.93;95.39;100999.00;2109289;28;20047;-75
2023/05/30 06:29:30;;;;;;;11.60;2.92;;;;;;;27.28;93.22;101005.41;2106461;28;20055;-75
2023/05/30 06:30:52;;;;;;;5.88;2.47;;;;;;;27.62;91.67;101002.81;2109406;28;20455;-74
2023/05/30 06:32:15;;;;;;;6.43;2.30;;;;;;;27.96;87.47;101003.78;2117158;28;20038;-74
2023/05/30 06:33:37;;;;;;;8.07;2.63;;;;;;;28.22;81.85;101011.44;2114001;28;20080;-75
2023/05/30 06:35:00;;;;;;;7.68;2.67;;;;;;;28.42;81.08;101013.94;2107436;28;20051;-74
2023/05/30 06:36:22;;;;;;;9.05;2.80;;;;;;;28.59;78.57;101015.75;2108221;28;20056;-73
2023/05/30 06:37:44;;;;;;;9.55;2.53;;;;;;;28.81;78.40;101016.34;2113733;28;20039;-75
2023/05/30 06:39:09;;;;;;;6.90;2.47;;;;;;;29.10;76.13;101020.13;2108774;28;20089;-75
2023/05/30 06:40:31;;;;;;;9.07;2.80;;;;;;;29.29;71.46;101017.22;2108921;28;20492;-75
2023/05/30 06:41:54;;;;;;;8.85;2.65;;;;;;;29.41;67.48;101021.97;2108581;28;20071;-75
2023/05/30 06:43:32;;;;;;;4.97;2.63;;;;;;;29.09;64.71;101025.63;2105947;28;20085;-75
2023/05/30 06:44:56;;;;;;;9.68;2.65;;;;;;;28.78;68.64;101021.94;2114786;28;20036;-73
2023/05/30 06:46:18;;;;;;;7.03;2.67;;;;;;;28.49;71.36;101026.22;2111974;28;20036;-74
2023/05/30 06:47:40;;;;;;;4.70;2.53;;;;;;;28.31;72.76;101029.94;2107686;28;20070;-75
2023/05/30 06:49:03;;;;;;;6.93;2.83;;;;;;;28.34;72.70;101026.19;2107757;27;20488;-75
2023/05/30 06:50:25;;;;;;;6.55;2.67;;;;;;;28.64;69.41;101023.63;2108307;28;20050;-74
2023/05/30 06:51:48;;;;;;;6.80;2.53;;;;;;;29.03;69.13;101023.28;2114802;28;20953;-75
2023/05/30 06:53:11;;;;;;;7.80;2.13;;;;;;;29.35;65.32;101021.44;2109268;28;20059;-75
2023/05/30 06:54:33;;;;;;;5.93;2.22;;;;;;;29.56;64.35;101025.63;2116931;28;20039;-75
2023/05/30 06:55:54;;;;;;;7.72;2.33;;;;;;;29.82;64.04;101026.81;2114277;28;20395;-75
2023/05/30 06:57:17;;;;;;;6.50;2.42;;;;;;;30.06;63.88;101023.50;2115274;27;20055;-73
2023/05/30 06:58:40;;;;;;;6.85;3.85;;;;;;;30.28;61.90;101022.16;2112147;27;20055;-75
2023/05/30 07:00:05;;;;;;;5.05;2.08;;;;;;;30.42;58.11;101031.25;2115034;27;20092;-75
2023/05/30 07:01:27;;;;;;;4.93;2.47;;;;;;;30.31;51.90;101028.31;2100702;28;20052;-75
2023/05/30 07:02:51;;;;;;;7.05;2.25;;;;;;;30.20;50.62;101027.22;2110988;28;20035;-74
2023/05/30 07:04:13;;;;;;;4.30;2.03;;;;;;;30.26;52.56;101027.72;2108944;28;20360;-75
2023/05/30 07:05:35;;;;;;;6.72;2.83;;;;;;;30.36;54.20;101028.03;2100605;28;20532;-75
2023/05/30 07:06:58;;;;;;;13.55;2.53;;;;;;;30.27;55.73;101017.69;2114022;28;20044;-75
2023/05/30 07:08:20;;;;;;;5.65;2.70;;;;;;;30.21;56.27;101024.41;2118844;28;20427;-75
2023/05/30 07:09:43;;;;;;;8.07;2.35;;;;;;;30.16;55.04;101025.66;2108577;28;20043;-75
2023/05/30 07:11:04;;;;;;;5.90;2.53;;;;;;;30.18;53.86;101026.44;2102862;28;20573;-75
2023/05/30 07:12:27;;;;;;;4.45;1.92;;;;;;;30.17;52.88;101024.69;2111053;27;20039;-75
2023/05/30 07:13:49;;;;;;;10.13;2.38;;;;;;;30.26;53.07;101024.13;2105789;28;20048;-75
2023/05/30 07:15:14;;;;;;;5.90;2.22;;;;;;;30.39;51.87;101016.94;2103026;28;20048;-75
2023/05/30 07:16:37;;;;;;;7.28;2.38;;;;;;;30.52;51.39;101034.31;2103348;28;20115;-75
2023/05/30 07:18:00;;;;;;;9.40;2.78;;;;;;;30.66;50.63;101034.28;2103369;28;20040;-75
2023/05/30 07:19:22;;;;;;;7.25;2.20;;;;;;;30.63;48.13;101037.22;2102665;28;20048;-75
2023/05/30 07:20:45;;;;;;;8.70;2.40;;;;;;;30.59;48.34;101037.53;2097406;28;20056;-74
2023/05/30 07:22:06;;;;;;;5.18;2.33;;;;;;;30.53;47.46;101044.22;2100808;28;20028;-75
2023/05/30 07:23:28;;;;;;;4.75;1.95;;;;;;;30.43;46.83;101032.13;2103084;28;20043;-75
2023/05/30 07:24:51;;;;;;;6.72;2.53;;;;;;;30.22;46.49;101045.22;2111531;28;20075;-75
2023/05/30 07:26:13;;;;;;;7.95;2.10;;;;;;;30.09;47.54;101041.50;2105635;28;20045;-75
2023/05/30 07:27:35;;;;;;;6.38;2.28;;;;;;;30.01;47.89;101039.25;2110629;28;20156;-75
2023/05/30 07:28:57;;;;;;;5.45;2.20;;;;;;;29.93;48.98;101041.53;2103196;28;20509;-76
2023/05/30 07:30:21;;;;;;;4.82;2.28;;;;;;;29.85;49.61;101038.41;2107055;28;20098;-75
2023/05/30 07:31:44;;;;;;;5.38;2.22;;;;;;;29.70;49.75;101034.75;2110831;28;20090;-75
2023/05/30 07:33:06;;;;;;;9.70;2.40;;;;;;;29.49;50.56;101035.13;2101992;28;20137;-74
2023/05/30 07:34:28;;;;;;;6.65;2.85;;;;;;;29.26;51.09;101039.16;2107963;28;20613;-74
2023/05/30 07:35:50;;;;;;;6.15;2.67;;;;;;;29.11;52.09;101037.31;2111510;28;20451;-75
2023/05/30 07:37:13;;;;;;;7.47;3.15;;;;;;;29.01;53.91;101033.38;2111276;28;20056;-75
2023/05/30 07:38:36;;;;;;;8.38;2.83;;;;;;;28.89;55.71;101040.34;2111493;28;20032;-75
2023/05/30 07:39:58;;;;;;;7.20;2.63;;;;;;;28.72;57.01;101035.84;2111449;28;20420;-74
2023/05/30 07:41:22;;;;;;;9.00;3.88;;;;;;;28.54;58.65;101035.03;2111581;28;20117;-75
2023/05/30 07:42:45;;;;;;;8.73;3.70;;;;;;;28.37;60.50;101045.91;2111884;28;20043;-75
2023/05/30 07:44:07;;;;;;;8.43;3.20;;;;;;;28.10;63.99;101045.50;2094312;28;20559;-75
2023/05/30 07:45:32;;;;;;;6.75;2.75;;;;;;;27.82;63.76;101045.19;2100282;28;20040;-75
2023/05/30 07:46:55;;;;;;;9.68;3.22;;;;;;;27.62;66.40;101054.34;2111757;28;20043;-75
2023/05/30 07:48:17;;;;;;;7.55;4.15;;;;;;;27.50;69.79;101060.34;2111691;28;20101;-76
2023/05/30 07:49:40;;;;;;;7.35;3.15;;;;;;;27.46;73.21;101060.56;2105637;28;20068;-74
2023/05/30 07:51:02;;;;;;;9.25;3.33;;;;;;;27.38;72.12;101052.81;2092994;28;20067;-74
2023/05/30 07:52:26;;;;;;;8.30;3.20;;;;;;;27.30;73.73;101052.34;2106350;28;20073;-75
2023/05/30 07:53:48;;;;;;;8.20;3.10;;;;;;;27.21;75.64;101048.22;2102099;28;20456;-74
2023/05/30 07:55:10;;;;;;;9.70;3.00;;;;;;;27.13;76.27;101054.97;2102277;28;20051;-75
2023/05/30 07:56:32;;;;;;;6.97;3.03;;;;;;;27.05;78.44;101052.63;2112177;28;20054;-74
2023/05/30 07:57:54;;;;;;;8.57;2.90;;;;;;;26.98;80.12;101058.44;2109029;28;20067;-75
2023/05/30 07:59:17;;;;;;;7.25;2.72;;;;;;;27.00;82.93;101056.50;2111009;28;20703;-75
2023/05/30 08:00:41;;;;;;;7.63;2.80;;;;;;;27.22;83.90;101055.41;2099911;28;20044;-75
2023/05/30 08:02:04;;;;;;;9.00;3.15;;;;;;;27.53;83.55;101062.94;2099901;28;20051;-75
2023/05/30 08:03:26;;;;;;;6.40;3.08;;;;;;;27.76;82.43;101057.22;2099081;28;20048;-76
2023/05/30 08:04:49;;;;;;;6.15;3.17;;;;;;;27.99;81.77;101047.91;2106818;28;20062;-75
2023/05/30 08:06:11;;;;;;;7.35;2.80;;;;;;;28.25;79.07;101046.56;2111454;28;20051;-75
2023/05/30 08:07:34;;;;;;;5.07;2.75;;;;;;;28.52;76.87;101046.94;2101814;28;20140;-74
2023/05/30 08:08:56;;;;;;;8.70;3.25;;;;;;;28.71;75.86;101036.78;2107461;28;20098;-75
2023/05/30 08:10:19;;;;;;;8.27;2.85;;;;;;;28.91;75.83;101041.16;2102861;28;20048;-75
2023/05/30 08:11:41;;;;;;;5.38;2.40;;;;;;;29.08;71.25;101038.34;2108254;28;20820;-75
2023/05/30 08:13:03;;;;;;;6.22;2.60;;;;;;;29.14;69.13;101042.59;2102727;28;20048;-74
2023/05/30 08:14:26;;;;;;;7.55;3.03;;;;;;;29.05;67.21;101041.25;2100332;28;20047;-75
2023/05/30 08:15:50;;;;;;;7.05;2.83;;;;;;;28.98;68.77;101044.41;2107514;28;20047;-74
2023/05/30 08:17:16;;;;;;;6.32;2.60;;;;;;;29.00;71.10;101043.38;2111393;28;20050;-75
2023/05/30 08:18:38;;;;;;;7.07;2.50;;;;;;;29.16;72.43;101040.63;2111641;28;20460;-74
2023/05/30 08:20:03;;;;;;;5.72;2.50;;;;;;;29.36;69.41;101047.69;2110393;28;20051;-75
2023/05/30 08:21:26;;;;;;;8.10;2.88;;;;;;;29.36;67.59;101045.84;2104929;28;20162;-75
2023/05/30 08:22:50;;;;;;;6.78;2.67;;;;;;;29.43;68.16;101049.09;2108423;28;20044;-75
2023/05/30 08:24:15;;;;;;;11.57;2.90;;;;;;;29.42;66.53;101044.59;2102740;28;20058;-75
2023/05/30 08:25:42;;;;;;;5.78;3.00;;;;;;;29.29;65.77;101044.41;2111402;28;20039;-75
2023/05/30 08:27:06;;;;;;;8.20;3.17;;;;;;;29.17;66.70;101042.41;2096947;28;20052;-75
2023/05/30 08:28:28;;;;;;;9.07;2.90;;;;;;;29.10;65.67;101044.59;2100414;28;20101;-75
2023/05/30 08:29:51;;;;;;;7.30;3.13;;;;;;;29.07;66.68;101035.75;2106770;28;20880;-75
2023/05/30 08:31:15;;;;;;;5.57;2.38;;;;;;;29.11;66.36;101046.34;2102818;28;20044;-75
2023/05/30 08:32:38;;;;;;;8.05;2.75;;;;;;;29.14;66.00;101050.75;2108617;28;20482;-75
2023/05/30 08:34:02;;;;;;;6.53;2.95;;;;;;;29.22;67.01;101045.72;2104503;28;20044;-75
2023/05/30 08:35:24;;;;;;;5.70;2.80;;;;;;;29.28;66.38;101042.66;2102767;28;20436;-76
2023/05/30 08:36:47;;;;;;;6.30;3.42;;;;;;;29.34;65.90;101055.97;2105341;28;20040;-75
2023/05/30 08:38:10;;;;;;;8.95;3.05;;;;;;;29.38;64.24;101048.50;2096946;28;20056;-75
2023/05/30 08:39:33;;;;;;;6.70;2.58;;;;;;;29.36;65.06;101051.28;2107984;28;20052;-75
2023/05/30 08:40:56;;;;;;;5.57;2.65;;;;;;;29.35;65.55;101048.66;2105257;28;20056;-75
2023/05/30 08:42:19;;;;;;;6.82;3.05;;;;;;;29.40;66.84;101054.72;2105273;28;20052;-75
2023/05/30 08:43:41;;;;;;;5.53;2.40;;;;;;;29.47;66.75;101047.97;2110641;28;20060;-75
2023/05/30 08:45:05;;;;;;;5.95;3.38;;;;;;;29.44;65.52;101050.84;2096774;28;20041;-75
2023/05/30 08:46:30;;;;;;;6.78;2.95;;;;;;;29.49;67.33;101056.91;2108759;28;20089;-74
2023/05/30 08:47:55;;;;;;;6.88;3.00;;;;;;;29.59;67.57;101052.69;2105131;28;20039;-74
2023/05/30 08:49:21;;;;;;;7.45;2.92;;;;;;;29.77;66.60;101051.59;2086110;28;20102;-75
2023/05/30 08:50:45;;;;;;;5.90;2.55;;;;;;;29.95;64.83;101049.63;2116285;27;20056;-75
2023/05/30 08:52:11;;;;;;;6.60;2.63;;;;;;;30.14;64.11;101053.00;2107755;28;20409;-74
2023/05/30 08:53:42;;;;;;;7.10;3.00;;;;;;;30.23;59.87;101057.88;2118930;27;20138;-74
2023/05/30 08:55:11;;;;;;;5.70;2.92;;;;;;;30.21;60.44;101051.66;2104339;28;20059;-74
2023/05/30 08:56:38;;;;;;;6.45;2.65;;;;;;;30.23;60.42;101051.56;2113794;28;20048;-75
2023/05/30 08:58:08;;;;;;;6.32;2.85;;;;;;;30.16;62.22;101061.06;2103119;28;20396;-75
2023/05/30 08:59:31;;;;;;;5.78;2.72;;;;;;;30.11;64.20;101055.91;2101447;28;20044;-74
2023/05/30 09:00:54;;;;;;;6.22;2.75;;;;;;;30.11;64.98;101058.66;2099994;28;20078;-74
2023/05/30 09:02:20;;;;;;;6.93;2.65;;;;;;;30.11;64.16;101061.38;2108442;28;20431;-75
2023/05/30 09:03:45;;;;;;;6.38;2.97;;;;;;;30.08;63.23;101056.09;2111248;28;20077;-74
2023/05/30 09:05:09;;;;;;;4.53;2.45;;;;;;;30.14;63.98;101054.84;2113102;28;20035;-74
2023/05/30 09:06:34;;;;;;;5.07;2.35;;;;;;;30.22;63.46;101060.69;2102370;28;20058;-75
2023/05/30 09:07:57;;;;;;;5.20;2.40;;;;;;;30.35;63.08;101058.97;2108113;28;20044;-74
2023/05/30 09:09:22;;;;;;;7.30;2.55;;;;;;;30.40;60.68;101051.38;2111978;28;20228;-73
2023/05/30 09:10:48;;;;;;;7.57;2.70;;;;;;;30.43;60.51;101053.94;2092631;28;20141;-73
2023/05/30 09:12:11;;;;;;;6.80;3.35;;;;;;;30.49;60.19;101048.13;2107182;28;20401;-73
2023/05/30 09:13:34;;;;;;;7.15;2.92;;;;;;;30.58;60.68;101057.59;2108965;28;20696;-74
2023/05/30 09:14:57;;;;;;;8.13;3.10;;;;;;;30.68;60.67;101056.91;2110859;28;20484;-74
2023/05/30 09:16:20;;;;;;;6.32;2.78;;;;;;;30.75;59.55;101055.53;2110506;28;20047;-74
2023/05/30 09:17:44;;;;;;;8.63;2.53;;;;;;;30.84;59.08;101057.69;2110775;28;20755;-74
2023/05/30 09:19:07;;;;;;;5.47;2.40;;;;;;;30.94;57.38;101062.53;2109750;28;20487;-74
2023/05/30 09:20:32;;;;;;;8.35;3.10;;;;;;;30.96;58.00;101063.31;2111119;27;20128;-74
2023/05/30 09:21:54;;;;;;;5.75;2.75;;;;;;;30.97;59.11;101057.78;2112868;28;20039;-75
2023/05/30 09:23:18;;;;;;;6.20;2.72;;;;;;;30.92;59.77;101064.50;2102086;28;20121;-74
2023/05/30 09:25:00;;;;;;;5.53;2.95;;;;;;;30.71;56.66;101059.44;2099638;28;20090;-75
2023/05/30 09:26:22;;;;;;;4.78;2.35;;;;;;;30.44;57.79;101064.75;2110900;28;20079;-75
2023/05/30 09:27:47;;;;;;;5.43;2.20;;;;;;;30.17;59.29;101065.56;2102468;28;20048;-75
2023/05/30 09:29:11;;;;;;;8.05;2.75;;;;;;;29.99;61.54;101063.00;2103662;28;20044;-75
2023/05/30 09:30:33;;;;;;;7.60;3.00;;;;;;;29.89;62.45;101066.31;2109950;28;20044;-74
2023/05/30 09:31:57;;;;;;;10.13;3.58;;;;;;;29.70;62.74;101072.84;2102305;28;20043;-75
2023/05/30 09:33:20;;;;;;;6.15;3.40;;;;;;;29.44;65.12;101064.44;2109014;28;20058;-75
2023/05/30 09:34:54;;;;;;;8.90;4.05;;;;;;;29.21;70.12;101068.47;2110677;28;20511;-74
2023/05/30 09:36:18;;;;;;;8.07;3.47;;;;;;;28.92;73.06;101072.81;2119048;27;20065;-74
2023/05/30 09:37:43;;;;;;;9.18;3.50;;;;;;;28.74;77.06;101065.66;2113329;28;20147;-75
2023/05/30 09:39:06;;;;;;;5.28;3.05;;;;;;;28.69;78.26;101065.88;2109761;28;20051;-74
2023/05/30 09:40:31;;;;;;;6.03;3.05;;;;;;;28.62;79.99;101067.19;2107467;28;20048;-74
2023/05/30 09:41:57;;;;;;;6.72;3.70;;;;;;;28.57;80.56;101068.41;2110821;28;20376;-74
2023/05/30 09:43:31;;;;;;;6.50;3.35;;;;;;;28.53;81.87;101065.88;2103675;28;20101;-75
2023/05/30 09:44:54;;;;;;;6.45;3.17;;;;;;;28.70;81.05;101069.50;2103675;28;20083;-74
2023/05/30 09:46:16;;;;;;;6.45;2.70;;;;;;;28.75;79.04;101070.16;2113395;28;20068;-75
2023/05/30 09:47:40;;;;;;;6.95;3.10;;;;;;;28.81;77.58;101078.00;2102859;28;20040;-75
2023/05/30 09:49:11;;;;;;;5.28;3.17;;;;;;;28.85;75.19;101076.84;2102500;28;20040;-74
2023/05/30 09:50:33;;;;;;;8.65;3.40;;;;;;;28.91;75.50;101071.94;2105986;28;20083;-74
2023/05/30 09:51:56;;;;;;;11.43;3.60;;;;;;;29.02;76.46;101079.50;2101154;28;20052;-74
2023/05/30 09:53:18;;;;;;;7.60;3.47;;;;;;;29.23;75.17;101072.84;2099779;28;20061;-75
2023/05/30 09:54:41;;;;;;;8.40;3.47;;;;;;;29.46;73.16;101074.28;2105580;28;20048;-74
2023/05/30 09:56:03;;;;;;;6.63;3.78;;;;;;;29.68;73.46;101076.63;2109475;28;20047;-74
2023/05/30 09:57:27;;;;;;;5.32;3.22;;;;;;;29.85;71.06;101071.06;2104691;28;20061;-74
2023/05/30 09:58:50;;;;;;;5.20;2.95;;;;;;;29.92;68.61;101079.78;2101348;28;20097;-73
2023/05/30 10:00:15;;;;;;;7.45;3.20;;;;;;;29.98;68.15;101068.53;2101691;28;20126;-74
2023/05/30 10:01:43;;;;;;;7.93;3.25;;;;;;;30.14;68.33;101066.59;2108223;28;20043;-75
2023/05/30 10:03:05;;;;;;;6.63;2.85;;;;;;;30.21;66.33;101067.13;2111238;28;20510;-74
2023/05/30 10:04:30;;;;;;;6.65;3.42;;;;;;;30.18;65.74;101065.47;2104514;28;20366;-75
2023/05/30 10:05:57;;;;;;;5.90;2.92;;;;;;;30.12;64.46;101064.97;2100258;28;20056;-75
2023/05/30 10:07:21;;;;;;;6.93;2.65;;;;;;;29.90;62.42;101068.94;2106908;28;20051;-75
2023/05/30 10:08:45;;;;;;;6.15;3.10;;;;;;;29.70;63.55;101067.41;2106588;28;20708;-74
2023/05/30 10:10:09;;;;;;;5.82;3.00;;;;;;;29.48;65.37;101072.34;2100015;28;20625;-75
2023/05/30 10:11:32;;;;;;;8.05;3.40;;;;;;;29.28;68.38;101069.84;2108268;28;20052;-75
2023/05/30 10:12:55;;;;;;;7.72;3.60;;;;;;;29.19;70.18;101068.56;2106589;28;20031;-74
2023/05/30 10:14:18;;;;;;;4.40;2.47;;;;;;;29.03;71.05;101072.22;2102268;28;20510;-74
2023/05/30 10:15:40;;;;;;;6.68;3.35;;;;;;;28.85;70.95;101071.41;2104488;28;20044;-75
2023/05/30 10:17:06;;;;;;;8.85;3.97;;;;;;;28.65;72.67;101061.59;2096290;28;20048;-75
2023/05/30 10:18:31;;;;;;;7.68;3.63;;;;;;;28.51;76.21;101061.47;2099917;28;20060;-74
2023/05/30 10:20:02;;;;;;;6.10;3.40;;;;;;;28.36;78.80;101057.72;2104689;28;20086;-74
2023/05/30 10:21:27;;;;;;;7.82;3.25;;;;;;;28.23;79.99;101061.16;2106437;28;20128;-75
2023/05/30 10:22:54;;;;;;;7.20;3.78;;;;;;;28.08;81.13;101052.88;2107967;28;20047;-75
2023/05/30 10:24:20;;;;;;;10.57;3.95;;;;;;;28.03;83.05;101054.03;2115173;28;20055;-74
2023/05/30 10:25:47;;;;;;;7.53;3.67;;;;;;;28.13;84.13;101052.63;2102993;28;20055;-75
2023/05/30 10:27:16;;;;;;;8.07;3.67;;;;;;;28.28;84.33;101053.69;2108972;28;20047;-74
2023/05/30 10:28:41;;;;;;;7.22;3.38;;;;;;;28.42;83.36;101054.69;2103711;28;20051;-75
2023/05/30 10:30:06;;;;;;;10.13;3.88;;;;;;;28.54;82.84;101048.59;2106465;28;20113;-75
2023/05/30 10:31:29;;;;;;;5.80;3.33;;;;;;;28.71;82.80;101050.38;2102064;28;20086;-74
2023/05/30 10:32:58;;;;;;;8.10;3.08;;;;;;;28.91;80.27;101049.31;2110387;28;20048;-74
2023/05/30 10:34:26;;;;;;;7.45;3.70;;;;;;;29.11;77.91;101049.06;2107178;28;20399;-75
2023/05/30 10:35:50;;;;;;;7.15;3.85;;;;;;;29.23;75.36;101050.22;2103081;28;20063;-74
2023/05/30 10:37:13;;;;;;;7.25;3.15;;;;;;;29.23;74.18;101048.38;2097037;28;20044;-74
2023/05/30 10:38:44;;;;;;;7.88;3.13;;;;;;;29.37;75.30;101054.88;2107721;28;20105;-74
2023/05/30 10:40:16;;;;;;;7.80;3.20;;;;;;;29.59;74.56;101052.69;2103073;28;20044;-74
2023/05/30 10:41:47;;;;;;;7.68;2.92;;;;;;;29.84;72.10;101052.97;2104054;28;20044;-74
2023/05/30 10:43:38;;;;;;;10.13;3.08;;;;;;;30.08;66.20;101045.19;2103658;28;20047;-75
2023/05/30 10:45:11;;;;;;;6.70;3.00;;;;;;;30.22;65.39;101044.34;2102930;28;20059;-74
2023/05/30 10:46:45;;;;;;;7.85;3.08;;;;;;;30.20;64.70;101039.00;2110553;28;20055;-74
2023/05/30 10:48:19;;;;;;;10.15;3.25;;;;;;;30.15;65.44;101041.13;2104856;28;20582;-75
2023/05/30 10:49:42;;;;;;;6.63;3.15;;;;;;;30.15;65.99;101040.25;2109182;28;20675;-74
2023/05/30 10:51:06;;;;;;;8.32;3.20;;;;;;;30.25;65.40;101042.34;2111827;28;20055;-74
2023/05/30 10:52:32;;;;;;;4.95;2.67;;;;;;;30.35;63.73;101043.50;2111883;28;20051;-75
2023/05/30 10:53:55;;;;;;;6.00;3.38;;;;;;;30.37;61.97;101035.25;2108096;28;20047;-75
2023/05/30 10:55:17;;;;;;;5.72;3.42;;;;;;;30.38;60.36;101034.28;2100945;28;20063;-75
2023/05/30 10:56:41;;;;;;;6.68;3.42;;;;;;;30.42;58.74;101039.41;2110728;28;20655;-75
2023/05/30 10:58:37;;;;;;;11.23;3.55;;;;;;;30.50;59.60;101033.53;2103623;28;20760;-74
2023/05/30 11:00:09;;;;;;;6.70;3.00;;;;;;;30.65;61.32;101037.16;2111974;28;20043;-75
2023/05/30 11:01:33;;;;;;;5.65;2.85;;;;;;;30.72;60.38;101042.06;2110404;28;20607;-75
2023/05/30 11:02:57;;;;;;;6.93;3.28;;;;;;;30.69;60.10;101030.50;2110189;28;20035;-74
2023/05/30 11:04:29;;;;;;;7.25;3.13;;;;;;;30.57;60.56;101029.44;2095314;28;20467;-76
2023/05/30 11:05:56;;;;;;;9.15;2.83;;;;;;;30.43;60.43;101023.94;2102801;28;20044;-74
2023/05/30 11:07:21;;;;;;;7.15;2.70;;;;;;;30.38;60.30;101026.97;2113842;28;20549;-75
2023/05/30 11:08:43;;;;;;;6.75;2.72;;;;;;;30.41;60.58;101029.50;2106803;28;20039;-75
2023/05/30 11:10:07;;;;;;;5.95;2.85;;;;;;;30.43;61.31;101026.69;2109389;28;20062;-75
2023/05/30 11:11:34;;;;;;;9.02;3.38;;;;;;;30.47;62.85;101033.66;2112312;28;20059;-74
2023/05/30 11:13:09;;;;;;;6.60;3.60;;;;;;;30.60;63.54;101036.53;2108137;27;20643;-75
2023/05/30 11:14:33;;;;;;;8.00;3.25;;;;;;;30.66;63.74;101037.03;2110155;28;20039;-75
2023/05/30 11:15:56;;;;;;;13.20;3.15;;;;;;;30.73;62.31;101042.97;2102735;28;20051;-75
2023/05/30 11:17:19;;;;;;;9.48;3.15;;;;;;;30.71;60.55;101029.44;2107494;28;20052;-74
2023/05/30 11:18:41;;;;;;;8.20;3.00;;;;;;;30.62;60.31;101029.13;2109758;28;20092;-74
2023/05/30 11:20:08;;;;;;;6.03;3.20;;;;;;;30.57;60.78;101021.28;2107318;28;20074;-74
2023/05/30 11:21:57;;;;;;;6.85;3.00;;;;;;;30.58;60.32;101025.75;2113486;28;20054;-75
2023/05/30 11:23:22;;;;;;;11.27;3.17;;;;;;;30.54;60.69;101023.28;2105662;28;20401;-75
2023/05/30 11:24:45;;;;;;;5.05;2.70;;;;;;;30.52;60.30;101015.25;2103342;28;20156;-75
2023/05/30 11:26:08;;;;;;;8.20;2.67;;;;;;;30.52;60.52;101020.69;2094476;28;20040;-74
2023/05/30 11:27:29;;;;;;;4.85;2.45;;;;;;;30.55;60.91;101022.31;2094636;28;20095;-74
2023/05/30 11:28:52;;;;;;;5.88;3.08;;;;;;;30.44;58.64;101022.97;2099790;28;20434;-75
2023/05/30 11:30:20;;;;;;;8.88;3.90;;;;;;;30.26;59.39;101016.81;2106981;28;20044;-75
2023/05/30 11:31:43;;;;;;;6.80;3.10;;;;;;;30.18;60.08;101019.16;2103539;28;20044;-75
2023/05/30 11:33:10;;;;;;;6.10;3.10;;;;;;;30.16;59.05;101017.50;2103884;28;20055;-75
2023/05/30 11:34:33;;;;;;;6.35;2.85;;;;;;;30.13;59.09;101024.00;2111794;28;20093;-74
2023/05/30 11:35:55;;;;;;;7.15;2.92;;;;;;;30.13;59.33;101014.97;2108325;28;20051;-75
2023/05/30 11:37:20;;;;;;;6.75;3.35;;;;;;;30.13;58.69;101025.88;2095022;28;20048;-75
2023/05/30 11:38:47;;;;;;;7.63;3.38;;;;;;;30.12;58.78;101025.00;2100581;28;20547;-75
2023/05/30 11:40:13;;;;;;;4.57;3.00;;;;;;;30.07;58.96;101019.81;2109439;28;20039;-74
2023/05/30 11:41:37;;;;;;;6.22;2.83;;;;;;;30.06;59.75;101011.75;2105662;28;20059;-74
2023/05/30 11:43:00;;;;;;;9.73;3.00;;;;;;;30.02;59.07;101016.50;2101792;28;20043;-74
2023/05/30 11:44:23;;;;;;;6.00;3.38;;;;;;;30.00;59.85;101012.97;2111043;28;20043;-73
2023/05/30 11:45:49;;;;;;;7.07;3.15;;;;;;;29.97;59.52;101004.13;2111523;28;20040;-74
2023/05/30 11:47:15;;;;;;;6.13;3.05;;;;;;;29.89;58.94;101007.28;2111636;28;20384;-74
2023/05/30 11:48:36;;;;;;;10.23;3.35;;;;;;;29.88;59.54;101008.25;2105291;28;20044;-75
2023/05/30 11:49:59;;;;;;;4.53;2.83;;;;;;;29.90;58.87;101013.59;2102453;28;20055;-74
2023/05/30 11:51:21;;;;;;;7.03;2.60;;;;;;;29.91;58.05;101012.63;2100131;28;20036;-74
2023/05/30 11:52:45;;;;;;;5.97;2.67;;;;;;;29.79;57.32;101014.28;2107815;28;20047;-74
2023/05/30 11:54:10;;;;;;;5.43;2.85;;;;;;;29.68;57.54;101014.00;2111289;28;20046;-74
2023/05/30 11:55:32;;;;;;;6.80;3.20;;;;;;;29.60;58.37;101010.91;2102693;28;20058;-74
2023/05/30 11:56:56;;;;;;;3.03;1.98;;;;;;;29.56;59.25;101003.84;2115354;27;20050;-74
2023/05/30 11:58:20;;;;;;;7.72;2.72;;;;;;;29.42;59.23;101009.25;2100526;28;20117;-74
2023/05/30 11:59:43;;;;;;;8.50;3.45;;;;;;;29.25;60.67;101010.19;2104419;28;20035;-75
2023/05/30 12:01:06;;;;;;;9.55;3.30;;;;;;;29.15;60.92;100998.97;2111009;28;20150;-74
2023/05/30 12:02:28;;;;;;;7.70;3.72;;;;;;;29.05;59.96;100999.59;2111259;28;20411;-74
2023/05/30 12:03:51;;;;;;;6.00;2.97;;;;;;;28.90;59.66;100998.63;2097185;28;20055;-74
2023/05/30 12:05:15;;;;;;;7.32;3.65;;;;;;;28.75;59.38;100996.78;2102381;28;20047;-74
2023/05/30 12:06:36;;;;;;;7.03;3.00;;;;;;;28.70;61.05;100990.66;2107927;28;20051;-74
2023/05/30 12:07:58;;;;;;;7.13;3.35;;;;;;;28.63;61.68;100989.25;2102621;28;20343;-74
2023/05/30 12:09:22;;;;;;;7.50;3.33;;;;;;;28.56;62.30;100994.16;2109800;28;20072;-74
2023/05/30 12:10:45;;;;;;;6.53;3.17;;;;;;;28.49;61.80;101003.59;2102692;28;20102;-74
2023/05/30 12:12:08;;;;;;;8.48;3.33;;;;;;;28.43;61.97;100999.38;2108366;28;20047;-74
2023/05/30 12:13:31;;;;;;;7.05;3.30;;;;;;;28.37;61.83;101004.28;2110545;28;20032;-74
2023/05/30 12:15:04;;;;;;;5.80;2.97;;;;;;;28.27;62.37;101003.91;2106479;28;20404;-74
2023/05/30 12:16:26;;;;;;;6.90;3.05;;;;;;;28.19;63.10;101016.13;2110817;28;20500;-74
2023/05/30 12:17:51;;;;;;;6.22;3.25;;;;;;;28.19;64.21;100998.00;2093890;28;20117;-75
2023/05/30 12:19:13;;;;;;;8.02;3.05;;;;;;;28.26;64.68;101002.16;2114016;27;20039;-74
2023/05/30 12:20:43;;;;;;;;;;;;;;;28.24;64.64;100998.63;2097245;28;20084;-74
2023/05/30 12:22:06;;;;;;;7.53;3.38;;;;;;;28.26;64.93;100998.56;2112442;27;19924;-74
2023/05/30 12:23:29;;;;;;;8.20;3.60;;;;;;;28.31;64.45;100996.47;2101342;28;20037;-74
2023/05/30 12:24:54;;;;;;;7.40;3.10;;;;;;;28.31;64.10;100991.91;2100555;28;20650;-75
2023/05/30 12:26:18;;;;;;;6.80;3.28;;;;;;;28.23;63.92;100998.72;2111205;28;20598;-74
2023/05/30 12:27:44;;;;;;;7.63;3.22;;;;;;;28.14;63.83;101005.53;2105260;28;20048;-75
2023/05/30 12:29:10;;;;;;;7.03;3.80;;;;;;;28.07;64.08;101001.34;2100400;28;20085;-74
2023/05/30 12:30:37;;;;;;;8.07;3.58;;;;;;;27.97;63.57;101000.06;2109457;28;20052;-74